Decoded Metar for KSUW (SUPERIOR in WI, USA) (IATA:SUW) | Meteo·Mobile Aviation Weather
aviador You're here:

KSUW Decoded Metar

SUPERIOR in WI, USA
Report Time2019-04-23 16:35:00
UTC Time2019-04-23 16:44:33
Flight Rules vfr VFR
Wind140° at 05 kt
W.Decomp.*RWY 14: 5.0 kt HW 0.1 kt RCW
RWY 22: 1.0 kt HW 4.9 kt LCW
Visibility9999 m
Phenomena:N/A
Clouds:N/A
Expected CloudBase > 3,200 ft AGL from Temp-Dew spread
CeilingNone
Temp12°C (ISA -2)
Dew Point04°C (58% RH)
AAT8.9°C
QNH1020 hPa
Density Alt358 ft
Elevation676 ft
Report Wrong Elevation
Raw Report
KSUW 231635Z AUTO 14005KT 10SM CLR 12/04 A3013 RMK AO2
T01200035=

Extra information for KSUW:More info

Metar Taf Metar & Taf Last 4 Metars F.Rules Stats Wind Profile Meteogram Temp Stats Airport Information Weather charts Add Link Nearby VenuesMetar ALERT Operation Metar Decoded Social comments

AIRNAV info for KSUW